sensor_id;sensor_type;location;lat;lon;timestamp;pressure;altitude;pressure_sealevel;temperature;humidity
44131;BME280;29792;48.726;9.248;2022-10-17T00:00:39;97444.81;;;15.93;96.26
44131;BME280;29792;48.726;9.248;2022-10-17T00:03:04;97452.72;;;15.92;95.49
44131;BME280;29792;48.726;9.248;2022-10-17T00:05:29;97448.63;;;15.89;96.22
44131;BME280;29792;48.726;9.248;2022-10-17T00:07:54;97448.81;;;15.88;95.99
44131;BME280;29792;48.726;9.248;2022-10-17T00:10:20;97452.50;;;15.85;95.95
44131;BME280;29792;48.726;9.248;2022-10-17T00:12:46;97451.66;;;15.85;96.21
44131;BME280;29792;48.726;9.248;2022-10-17T00:15:14;97449.91;;;15.85;96.63
44131;BME280;29792;48.726;9.248;2022-10-17T00:17:40;97451.53;;;15.86;96.78
44131;BME280;29792;48.726;9.248;2022-10-17T00:20:06;97461.56;;;15.89;96.43
44131;BME280;29792;48.726;9.248;2022-10-17T00:22:31;97461.41;;;15.91;96.77
44131;BME280;29792;48.726;9.248;2022-10-17T00:24:57;97452.84;;;15.90;96.28
44131;BME280;29792;48.726;9.248;2022-10-17T00:27:22;97460.25;;;15.85;95.73
44131;BME280;29792;48.726;9.248;2022-10-17T00:29:51;97466.81;;;15.80;95.81
44131;BME280;29792;48.726;9.248;2022-10-17T00:32:17;97469.13;;;15.73;95.60
44131;BME280;29792;48.726;9.248;2022-10-17T00:34:43;97473.91;;;15.68;95.95
44131;BME280;29792;48.726;9.248;2022-10-17T00:37:08;97469.84;;;15.65;96.27
44131;BME280;29792;48.726;9.248;2022-10-17T00:39:33;97476.63;;;15.67;96.76
44131;BME280;29792;48.726;9.248;2022-10-17T00:41:59;97477.31;;;15.69;97.16
44131;BME280;29792;48.726;9.248;2022-10-17T00:46:56;97469.56;;;15.69;97.31
44131;BME280;29792;48.726;9.248;2022-10-17T00:49:23;97472.81;;;15.71;97.25
44131;BME280;29792;48.726;9.248;2022-10-17T00:51:53;97470.53;;;15.68;97.31
44131;BME280;29792;48.726;9.248;2022-10-17T00:54:23;97470.53;;;15.68;97.45
44131;BME280;29792;48.726;9.248;2022-10-17T00:56:52;97479.09;;;15.68;97.58
44131;BME280;29792;48.726;9.248;2022-10-17T00:59:19;97473.09;;;15.68;97.72
44131;BME280;29792;48.726;9.248;2022-10-17T01:02:07;97472.28;;;15.67;97.93
44131;BME280;29792;48.726;9.248;2022-10-17T01:04:35;97471.34;;;15.68;97.74
44131;BME280;29792;48.726;9.248;2022-10-17T01:07:00;97461.94;;;15.67;97.95
44131;BME280;29792;48.726;9.248;2022-10-17T01:09:26;97474.19;;;15.65;97.66
44131;BME280;29792;48.726;9.248;2022-10-17T01:12:00;97470.16;;;15.62;97.76
44131;BME280;29792;48.726;9.248;2022-10-17T01:14:30;97480.06;;;15.57;97.14
44131;BME280;29792;48.726;9.248;2022-10-17T01:17:11;97475.75;;;15.48;96.84
44131;BME280;29792;48.726;9.248;2022-10-17T01:19:49;97481.91;;;15.38;96.78
44131;BME280;29792;48.726;9.248;2022-10-17T01:22:45;97482.06;;;15.26;97.35
44131;BME280;29792;48.726;9.248;2022-10-17T01:28:05;97484.53;;;15.09;97.77
44131;BME280;29792;48.726;9.248;2022-10-17T01:31:02;97481.72;;;15.02;98.19
44131;BME280;29792;48.726;9.248;2022-10-17T01:38:50;97478.44;;;15.00;99.31
44131;BME280;29792;48.726;9.248;2022-10-17T01:41:25;97471.00;;;14.97;99.38
44131;BME280;29792;48.726;9.248;2022-10-17T01:44:09;97467.59;;;14.97;100.00
44131;BME280;29792;48.726;9.248;2022-10-17T01:46:38;97468.94;;;15.01;100.00
44131;BME280;29792;48.726;9.248;2022-10-17T01:49:06;97470.69;;;15.00;100.00
44131;BME280;29792;48.726;9.248;2022-10-17T01:51:37;97464.88;;;14.98;100.00
44131;BME280;29792;48.726;9.248;2022-10-17T01:54:14;97458.09;;;14.97;100.00
44131;BME280;29792;48.726;9.248;2022-10-17T01:56:42;97454.03;;;14.95;100.00
44131;BME280;29792;48.726;9.248;2022-10-17T01:59:13;97458.78;;;14.89;100.00
44131;BME280;29792;48.726;9.248;2022-10-17T02:01:41;97456.22;;;14.89;100.00
44131;BME280;29792;48.726;9.248;2022-10-17T02:04:08;97455.53;;;14.87;100.00
44131;BME280;29792;48.726;9.248;2022-10-17T02:06:35;97457.28;;;14.87;100.00
44131;BME280;29792;48.726;9.248;2022-10-17T02:09:00;97454.72;;;14.87;100.00
44131;BME280;29792;48.726;9.248;2022-10-17T02:11:26;97449.69;;;14.85;100.00
44131;BME280;29792;48.726;9.248;2022-10-17T02:14:13;97452.41;;;14.84;100.00
44131;BME280;29792;48.726;9.248;2022-10-17T02:19:54;97450.38;;;14.87;100.00
44131;BME280;29792;48.726;9.248;2022-10-17T02:22:44;97458.50;;;14.93;100.00
44131;BME280;29792;48.726;9.248;2022-10-17T02:25:21;97456.47;;;14.96;100.00
44131;BME280;29792;48.726;9.248;2022-10-17T02:27:56;97456.19;;;14.99;100.00
44131;BME280;29792;48.726;9.248;2022-10-17T02:33:27;97458.22;;;14.96;100.00
44131;BME280;29792;48.726;9.248;2022-10-17T02:35:56;97462.19;;;14.90;100.00
44131;BME280;29792;48.726;9.248;2022-10-17T02:38:23;97460.69;;;14.87;100.00
44131;BME280;29792;48.726;9.248;2022-10-17T02:40:50;97461.94;;;14.83;100.00
44131;BME280;29792;48.726;9.248;2022-10-17T02:43:18;97464.78;;;14.80;100.00
44131;BME280;29792;48.726;9.248;2022-10-17T02:45:44;97464.38;;;14.75;100.00
44131;BME280;29792;48.726;9.248;2022-10-17T02:48:40;97474.03;;;14.73;100.00
44131;BME280;29792;48.726;9.248;2022-10-17T02:51:21;97473.06;;;14.74;100.00
44131;BME280;29792;48.726;9.248;2022-10-17T02:54:04;97472.78;;;14.77;100.00
44131;BME280;29792;48.726;9.248;2022-10-17T02:56:36;97467.50;;;14.79;100.00
44131;BME280;29792;48.726;9.248;2022-10-17T02:59:06;97478.50;;;14.81;100.00
44131;BME280;29792;48.726;9.248;2022-10-17T03:01:34;97474.97;;;14.82;100.00
44131;BME280;29792;48.726;9.248;2022-10-17T03:04:04;97473.47;;;14.79;100.00
44131;BME280;29792;48.726;9.248;2022-10-17T03:06:30;97465.03;;;14.77;100.00
44131;BME280;29792;48.726;9.248;2022-10-17T03:08:55;97464.38;;;14.75;100.00
44131;BME280;29792;48.726;9.248;2022-10-17T03:11:20;97469.81;;;14.72;100.00
44131;BME280;29792;48.726;9.248;2022-10-17T03:13:45;97477.53;;;14.72;100.00
44131;BME280;29792;48.726;9.248;2022-10-17T03:16:11;97478.75;;;14.68;100.00
44131;BME280;29792;48.726;9.248;2022-10-17T03:18:36;97475.53;;;14.66;100.00
44131;BME280;29792;48.726;9.248;2022-10-17T03:21:01;97481.63;;;14.65;100.00
44131;BME280;29792;48.726;9.248;2022-10-17T03:23:26;97482.56;;;14.64;100.00
44131;BME280;29792;48.726;9.248;2022-10-17T03:25:52;97491.38;;;14.62;100.00
44131;BME280;29792;48.726;9.248;2022-10-17T03:28:17;97493.56;;;14.57;100.00
44131;BME280;29792;48.726;9.248;2022-10-17T03:30:42;97498.16;;;14.53;100.00
44131;BME280;29792;48.726;9.248;2022-10-17T03:33:07;97497.09;;;14.46;100.00
44131;BME280;29792;48.726;9.248;2022-10-17T03:35:33;97494.09;;;14.41;100.00
44131;BME280;29792;48.726;9.248;2022-10-17T03:37:58;97495.28;;;14.37;100.00
44131;BME280;29792;48.726;9.248;2022-10-17T03:40:23;97498.13;;;14.34;100.00
44131;BME280;29792;48.726;9.248;2022-10-17T03:42:49;97497.44;;;14.32;100.00
44131;BME280;29792;48.726;9.248;2022-10-17T03:45:14;97494.31;;;14.28;100.00
44131;BME280;29792;48.726;9.248;2022-10-17T03:47:39;97501.50;;;14.25;100.00
44131;BME280;29792;48.726;9.248;2022-10-17T03:50:05;97490.66;;;14.21;100.00
44131;BME280;29792;48.726;9.248;2022-10-17T03:52:30;97494.31;;;14.19;100.00
44131;BME280;29792;48.726;9.248;2022-10-17T03:54:55;97500.56;;;14.16;100.00
44131;BME280;29792;48.726;9.248;2022-10-17T03:57:21;97500.69;;;14.14;100.00
44131;BME280;29792;48.726;9.248;2022-10-17T03:59:46;97505.25;;;14.11;100.00
44131;BME280;29792;48.726;9.248;2022-10-17T04:02:11;97508.13;;;14.08;100.00
44131;BME280;29792;48.726;9.248;2022-10-17T04:04:36;97504.59;;;13.99;100.00
44131;BME280;29792;48.726;9.248;2022-10-17T04:07:02;97506.19;;;13.91;100.00
44131;BME280;29792;48.726;9.248;2022-10-17T04:09:27;97502.38;;;13.85;100.00
44131;BME280;29792;48.726;9.248;2022-10-17T04:11:52;97501.56;;;13.85;100.00
44131;BME280;29792;48.726;9.248;2022-10-17T04:14:18;97511.88;;;13.85;100.00
44131;BME280;29792;48.726;9.248;2022-10-17T04:16:43;97512.53;;;13.87;100.00
44131;BME280;29792;48.726;9.248;2022-10-17T04:19:11;97511.75;;;13.86;100.00
44131;BME280;29792;48.726;9.248;2022-10-17T04:21:37;97512.53;;;13.87;100.00
44131;BME280;29792;48.726;9.248;2022-10-17T04:24:02;97519.31;;;13.88;100.00
44131;BME280;29792;48.726;9.248;2022-10-17T04:26:27;97521.88;;;13.88;100.00
44131;BME280;29792;48.726;9.248;2022-10-17T04:28:53;97518.78;;;13.84;100.00
44131;BME280;29792;48.726;9.248;2022-10-17T04:31:18;97526.88;;;13.80;100.00
44131;BME280;29792;48.726;9.248;2022-10-17T04:33:46;97524.56;;;13.77;100.00
44131;BME280;29792;48.726;9.248;2022-10-17T04:36:13;97529.03;;;13.74;100.00
44131;BME280;29792;48.726;9.248;2022-10-17T04:38:39;97530.22;;;13.70;100.00
44131;BME280;29792;48.726;9.248;2022-10-17T04:41:07;97532.13;;;13.68;100.00
44131;BME280;29792;48.726;9.248;2022-10-17T04:43:35;97523.59;;;13.68;100.00
44131;BME280;29792;48.726;9.248;2022-10-17T04:46:03;97533.88;;;13.68;100.00
44131;BME280;29792;48.726;9.248;2022-10-17T04:48:29;97534.00;;;13.66;100.00
44131;BME280;29792;48.726;9.248;2022-10-17T04:51:05;97533.31;;;13.64;100.00
44131;BME280;29792;48.726;9.248;2022-10-17T04:53:33;97529.81;;;13.65;100.00
44131;BME280;29792;48.726;9.248;2022-10-17T04:55:58;97523.03;;;13.64;100.00
44131;BME280;29792;48.726;9.248;2022-10-17T04:58:24;97535.78;;;13.66;100.00
44131;BME280;29792;48.726;9.248;2022-10-17T05:00:49;97539.03;;;13.68;100.00
44131;BME280;29792;48.726;9.248;2022-10-17T05:03:15;97533.06;;;13.67;100.00
44131;BME280;29792;48.726;9.248;2022-10-17T05:05:40;97535.78;;;13.66;100.00
44131;BME280;29792;48.726;9.248;2022-10-17T05:08:08;97539.41;;;13.63;100.00
44131;BME280;29792;48.726;9.248;2022-10-17T05:10:38;97539.56;;;13.62;100.00
44131;BME280;29792;48.726;9.248;2022-10-17T05:13:04;97537.78;;;13.62;100.00
44131;BME280;29792;48.726;9.248;2022-10-17T05:15:29;97535.19;;;13.62;100.00
44131;BME280;29792;48.726;9.248;2022-10-17T05:17:55;97541.03;;;13.64;100.00
44131;BME280;29792;48.726;9.248;2022-10-17T05:20:21;97535.19;;;13.62;100.00
44131;BME280;29792;48.726;9.248;2022-10-17T05:22:46;97534.53;;;13.60;100.00
44131;BME280;29792;48.726;9.248;2022-10-17T05:25:12;97528.56;;;13.60;100.00
44131;BME280;29792;48.726;9.248;2022-10-17T05:27:37;97525.19;;;13.59;100.00
44131;BME280;29792;48.726;9.248;2022-10-17T05:30:03;97529.50;;;13.59;100.00
44131;BME280;29792;48.726;9.248;2022-10-17T05:32:28;97530.19;;;13.61;100.00
44131;BME280;29792;48.726;9.248;2022-10-17T05:34:54;97533.44;;;13.63;100.00
44131;BME280;29792;48.726;9.248;2022-10-17T05:37:19;97541.16;;;13.63;100.00
44131;BME280;29792;48.726;9.248;2022-10-17T05:39:44;97541.16;;;13.63;100.00
44131;BME280;29792;48.726;9.248;2022-10-17T05:42:09;97540.34;;;13.62;100.00
44131;BME280;29792;48.726;9.248;2022-10-17T05:44:35;97542.25;;;13.60;100.00
44131;BME280;29792;48.726;9.248;2022-10-17T05:47:00;97545.66;;;13.61;100.00
44131;BME280;29792;48.726;9.248;2022-10-17T05:49:25;97543.19;;;13.59;100.00
44131;BME280;29792;48.726;9.248;2022-10-17T05:51:51;97546.72;;;13.58;100.00
44131;BME280;29792;48.726;9.248;2022-10-17T05:54:16;97551.16;;;13.56;100.00
44131;BME280;29792;48.726;9.248;2022-10-17T05:56:41;97549.69;;;13.54;100.00
44131;BME280;29792;48.726;9.248;2022-10-17T05:59:07;97550.88;;;13.50;100.00
44131;BME280;29792;48.726;9.248;2022-10-17T06:01:32;97553.00;;;13.45;100.00
44131;BME280;29792;48.726;9.248;2022-10-17T06:03:57;97554.59;;;13.36;100.00
44131;BME280;29792;48.726;9.248;2022-10-17T06:06:22;97563.06;;;13.27;100.00
44131;BME280;29792;48.726;9.248;2022-10-17T06:08:48;97567.19;;;13.18;100.00
44131;BME280;29792;48.726;9.248;2022-10-17T06:11:13;97568.03;;;13.08;100.00
44131;BME280;29792;48.726;9.248;2022-10-17T06:13:38;97568.66;;;13.00;100.00
44131;BME280;29792;48.726;9.248;2022-10-17T06:16:05;97569.16;;;12.94;100.00
44131;BME280;29792;48.726;9.248;2022-10-17T06:18:30;97567.91;;;12.88;100.00
44131;BME280;29792;48.726;9.248;2022-10-17T06:21:03;97561.25;;;12.86;100.00
44131;BME280;29792;48.726;9.248;2022-10-17T06:23:29;97568.25;;;12.84;100.00
44131;BME280;29792;48.726;9.248;2022-10-17T06:25:59;97560.66;;;12.82;100.00
44131;BME280;29792;48.726;9.248;2022-10-17T06:28:24;97563.94;;;12.84;100.00
44131;BME280;29792;48.726;9.248;2022-10-17T06:30:50;97566.50;;;12.84;100.00
44131;BME280;29792;48.726;9.248;2022-10-17T06:33:15;97567.31;;;12.85;100.00
44131;BME280;29792;48.726;9.248;2022-10-17T06:35:42;97581.00;;;12.85;100.00
44131;BME280;29792;48.726;9.248;2022-10-17T06:38:07;97586.84;;;12.87;100.00
44131;BME280;29792;48.726;9.248;2022-10-17T06:40:32;97591.06;;;12.88;100.00
44131;BME280;29792;48.726;9.248;2022-10-17T06:42:57;97579.44;;;12.94;100.00
44131;BME280;29792;48.726;9.248;2022-10-17T06:45:23;97577.44;;;12.97;100.00
44131;BME280;29792;48.726;9.248;2022-10-17T06:47:48;97583.38;;;12.98;100.00
44131;BME280;29792;48.726;9.248;2022-10-17T06:50:14;97591.91;;;12.98;100.00
44131;BME280;29792;48.726;9.248;2022-10-17T06:52:39;97596.31;;;13.08;100.00
44131;BME280;29792;48.726;9.248;2022-10-17T06:55:04;97601.09;;;13.44;100.00
44131;BME280;29792;48.726;9.248;2022-10-17T06:57:30;97607.50;;;14.01;100.00
44131;BME280;29792;48.726;9.248;2022-10-17T06:59:55;97609.59;;;14.57;100.00
44131;BME280;29792;48.726;9.248;2022-10-17T07:02:21;97605.56;;;15.02;100.00
44131;BME280;29792;48.726;9.248;2022-10-17T07:04:48;97619.25;;;15.41;100.00
44131;BME280;29792;48.726;9.248;2022-10-17T07:07:13;97625.91;;;15.73;100.00
44131;BME280;29792;48.726;9.248;2022-10-17T07:09:39;97632.63;;;16.02;100.00
44131;BME280;29792;48.726;9.248;2022-10-17T07:12:04;97635.22;;;16.30;100.00
44131;BME280;29792;48.726;9.248;2022-10-17T07:14:32;97636.59;;;16.61;99.71
44131;BME280;29792;48.726;9.248;2022-10-17T07:16:58;97631.75;;;16.94;98.53
44131;BME280;29792;48.726;9.248;2022-10-17T07:19:24;97622.66;;;17.25;96.90
44131;BME280;29792;48.726;9.248;2022-10-17T07:21:49;97630.63;;;17.49;95.30
44131;BME280;29792;48.726;9.248;2022-10-17T07:24:15;97634.47;;;17.63;93.08
44131;BME280;29792;48.726;9.248;2022-10-17T07:26:40;97636.00;;;17.74;91.97
44131;BME280;29792;48.726;9.248;2022-10-17T07:29:05;97638.53;;;17.66;89.45
44131;BME280;29792;48.726;9.248;2022-10-17T07:31:32;97641.47;;;17.53;88.64
44131;BME280;29792;48.726;9.248;2022-10-17T07:33:58;97647.94;;;17.49;89.85
44131;BME280;29792;48.726;9.248;2022-10-17T07:36:23;97648.38;;;17.44;89.65
44131;BME280;29792;48.726;9.248;2022-10-17T07:38:48;97642.16;;;17.37;89.57
44131;BME280;29792;48.726;9.248;2022-10-17T07:41:14;97647.00;;;17.32;90.33
44131;BME280;29792;48.726;9.248;2022-10-17T07:43:39;97649.59;;;17.32;90.03
44131;BME280;29792;48.726;9.248;2022-10-17T07:46:06;97652.78;;;17.26;89.72
44131;BME280;29792;48.726;9.248;2022-10-17T07:48:33;97650.94;;;17.19;89.83
44131;BME280;29792;48.726;9.248;2022-10-17T07:51:03;97656.81;;;17.11;90.14
44131;BME280;29792;48.726;9.248;2022-10-17T07:53:28;97659.03;;;17.06;91.08
44131;BME280;29792;48.726;9.248;2022-10-17T07:55:54;97652.25;;;17.05;92.23
44131;BME280;29792;48.726;9.248;2022-10-17T07:58:19;97660.97;;;17.04;92.54
44131;BME280;29792;48.726;9.248;2022-10-17T08:00:44;97659.34;;;17.03;92.91
44131;BME280;29792;48.726;9.248;2022-10-17T08:03:12;97660.00;;;17.05;93.35
44131;BME280;29792;48.726;9.248;2022-10-17T08:05:37;97664.09;;;17.07;93.49
44131;BME280;29792;48.726;9.248;2022-10-17T08:08:03;97664.91;;;17.08;92.64
44131;BME280;29792;48.726;9.248;2022-10-17T08:10:28;97666.13;;;17.04;92.66
44131;BME280;29792;48.726;9.248;2022-10-17T08:12:54;97666.31;;;17.02;92.79
44131;BME280;29792;48.726;9.248;2022-10-17T08:15:20;97663.72;;;17.02;93.15
44131;BME280;29792;48.726;9.248;2022-10-17T08:17:46;97666.66;;;17.07;94.31
44131;BME280;29792;48.726;9.248;2022-10-17T08:20:11;97668.81;;;17.12;94.18
44131;BME280;29792;48.726;9.248;2022-10-17T08:22:36;97663.19;;;17.16;94.46
44131;BME280;29792;48.726;9.248;2022-10-17T08:25:02;97663.56;;;17.22;94.83
44131;BME280;29792;48.726;9.248;2022-10-17T08:27:27;97660.91;;;17.31;94.68
44131;BME280;29792;48.726;9.248;2022-10-17T08:29:53;97665.88;;;17.42;94.51
44131;BME280;29792;48.726;9.248;2022-10-17T08:32:24;97662.72;;;17.57;94.51
44131;BME280;29792;48.726;9.248;2022-10-17T08:34:51;97673.03;;;17.66;93.72
44131;BME280;29792;48.726;9.248;2022-10-17T08:37:16;97678.44;;;17.73;93.00
44131;BME280;29792;48.726;9.248;2022-10-17T08:39:41;97673.31;;;17.81;92.98
44131;BME280;29792;48.726;9.248;2022-10-17T08:47:44;97679.38;;;18.15;91.83
44131;BME280;29792;48.726;9.248;2022-10-17T08:50:37;97675.88;;;18.33;91.86
44131;BME280;29792;48.726;9.248;2022-10-17T08:55:52;97683.72;;;18.83;89.86
44131;BME280;29792;48.726;9.248;2022-10-17T08:58:29;97680.38;;;19.06;90.60
44131;BME280;29792;48.726;9.248;2022-10-17T09:01:05;97683.19;;;19.29;88.83
44131;BME280;29792;48.726;9.248;2022-10-17T09:04:00;97681.56;;;19.44;86.47
44131;BME280;29792;48.726;9.248;2022-10-17T09:06:44;97687.28;;;19.56;85.94
44131;BME280;29792;48.726;9.248;2022-10-17T09:09:46;97683.88;;;19.72;85.88
44131;BME280;29792;48.726;9.248;2022-10-17T09:12:47;97687.94;;;19.83;85.48
44131;BME280;29792;48.726;9.248;2022-10-17T09:15:52;97685.16;;;19.84;84.78
44131;BME280;29792;48.726;9.248;2022-10-17T09:18:28;97690.53;;;19.91;85.21
44131;BME280;29792;48.726;9.248;2022-10-17T09:21:12;97691.97;;;20.01;86.08
44131;BME280;29792;48.726;9.248;2022-10-17T09:23:47;97686.09;;;20.07;84.22
44131;BME280;29792;48.726;9.248;2022-10-17T09:26:14;97688.19;;;20.12;83.63
44131;BME280;29792;48.726;9.248;2022-10-17T09:28:41;97685.56;;;20.20;84.24
44131;BME280;29792;48.726;9.248;2022-10-17T09:31:24;97683.16;;;20.35;84.23
44131;BME280;29792;48.726;9.248;2022-10-17T09:33:53;97683.41;;;20.48;84.25
44131;BME280;29792;48.726;9.248;2022-10-17T09:36:32;97684.97;;;20.65;84.07
44131;BME280;29792;48.726;9.248;2022-10-17T09:39:18;97692.56;;;20.83;84.33
44131;BME280;29792;48.726;9.248;2022-10-17T09:41:49;97683.69;;;20.92;83.36
44131;BME280;29792;48.726;9.248;2022-10-17T09:44:29;97688.69;;;21.02;81.62
44131;BME280;29792;48.726;9.248;2022-10-17T09:47:33;97688.47;;;21.11;82.39
44131;BME280;29792;48.726;9.248;2022-10-17T09:50:10;97681.63;;;21.18;81.31
44131;BME280;29792;48.726;9.248;2022-10-17T09:52:41;97676.72;;;21.23;80.79
44131;BME280;29792;48.726;9.248;2022-10-17T09:55:32;97672.94;;;21.26;80.11
44131;BME280;29792;48.726;9.248;2022-10-17T09:58:04;97676.47;;;21.33;80.99
44131;BME280;29792;48.726;9.248;2022-10-17T10:00:47;97674.00;;;21.40;80.68
44131;BME280;29792;48.726;9.248;2022-10-17T10:03:14;97677.59;;;21.39;80.07
44131;BME280;29792;48.726;9.248;2022-10-17T10:05:41;97686.03;;;21.41;80.03
44131;BME280;29792;48.726;9.248;2022-10-17T10:08:15;97682.44;;;21.42;79.83
44131;BME280;29792;48.726;9.248;2022-10-17T10:10:41;97692.19;;;21.48;80.85
44131;BME280;29792;48.726;9.248;2022-10-17T10:15:49;97686.31;;;21.68;81.46
44131;BME280;29792;48.726;9.248;2022-10-17T10:21:02;97681.28;;;21.82;79.76
44131;BME280;29792;48.726;9.248;2022-10-17T10:23:28;97686.81;;;21.87;80.00
44131;BME280;29792;48.726;9.248;2022-10-17T10:25:57;97680.41;;;21.89;80.17
44131;BME280;29792;48.726;9.248;2022-10-17T10:28:33;97690.97;;;21.96;81.36
44131;BME280;29792;48.726;9.248;2022-10-17T10:31:03;97684.25;;;22.01;79.67
44131;BME280;29792;48.726;9.248;2022-10-17T10:33:31;97693.97;;;22.07;79.89
44131;BME280;29792;48.726;9.248;2022-10-17T10:35:59;97689.22;;;22.11;78.06
44131;BME280;29792;48.726;9.248;2022-10-17T10:38:29;97695.84;;;22.14;78.29
44131;BME280;29792;48.726;9.248;2022-10-17T10:40:56;97702.28;;;22.26;79.94
44131;BME280;29792;48.726;9.248;2022-10-17T10:43:34;97698.41;;;22.36;79.40
44131;BME280;29792;48.726;9.248;2022-10-17T10:46:04;97698.22;;;22.38;78.23
44131;BME280;29792;48.726;9.248;2022-10-17T10:48:35;97695.59;;;22.38;76.74
44131;BME280;29792;48.726;9.248;2022-10-17T10:51:09;97701.47;;;22.40;77.21
44131;BME280;29792;48.726;9.248;2022-10-17T10:53:51;97700.56;;;22.48;78.46
44131;BME280;29792;48.726;9.248;2022-10-17T10:56:22;97696.84;;;22.57;77.17
44131;BME280;29792;48.726;9.248;2022-10-17T11:06:28;97694.69;;;22.90;77.07
44131;BME280;29792;48.726;9.248;2022-10-17T11:11:58;97688.50;;;23.12;74.88
44131;BME280;29792;48.726;9.248;2022-10-17T11:14:44;97681.97;;;23.23;75.29
44131;BME280;29792;48.726;9.248;2022-10-17T11:20:02;97691.81;;;23.42;74.98
44131;BME280;29792;48.726;9.248;2022-10-17T11:22:34;97683.50;;;23.53;74.04
44131;BME280;29792;48.726;9.248;2022-10-17T11:25:14;97686.44;;;23.65;72.74
44131;BME280;29792;48.726;9.248;2022-10-17T11:27:42;97678.03;;;23.76;72.03
44131;BME280;29792;48.726;9.248;2022-10-17T11:30:11;97675.09;;;23.85;70.98
44131;BME280;29792;48.726;9.248;2022-10-17T11:33:15;97677.41;;;23.95;70.41
44131;BME280;29792;48.726;9.248;2022-10-17T11:35:36;97679.31;;;24.08;70.23
44131;BME280;29792;48.726;9.248;2022-10-17T11:38:26;97676.59;;;24.22;71.04
44131;BME280;29792;48.726;9.248;2022-10-17T11:40:58;97669.63;;;24.36;69.81
44131;BME280;29792;48.726;9.248;2022-10-17T11:43:37;97678.13;;;24.45;67.71
44131;BME280;29792;48.726;9.248;2022-10-17T11:46:16;97672.31;;;24.49;63.16
44131;BME280;29792;48.726;9.248;2022-10-17T11:51:14;97676.84;;;24.68;61.87
44131;BME280;29792;48.726;9.248;2022-10-17T11:53:48;97681.72;;;24.78;60.61
44131;BME280;29792;48.726;9.248;2022-10-17T11:56:20;97672.88;;;24.86;59.35
44131;BME280;29792;48.726;9.248;2022-10-17T11:59:11;97673.09;;;24.91;56.54
44131;BME280;29792;48.726;9.248;2022-10-17T12:01:55;97673.13;;;24.97;56.74
44131;BME280;29792;48.726;9.248;2022-10-17T12:07:39;97666.94;;;25.12;56.29
44131;BME280;29792;48.726;9.248;2022-10-17T12:10:23;97676.63;;;25.18;53.72
44131;BME280;29792;48.726;9.248;2022-10-17T12:12:49;97678.22;;;25.19;53.35
44131;BME280;29792;48.726;9.248;2022-10-17T12:18:02;97671.38;;;25.24;53.05
44131;BME280;29792;48.726;9.248;2022-10-17T12:20:28;97670.19;;;25.27;52.23
44131;BME280;29792;48.726;9.248;2022-10-17T12:25:37;97668.56;;;25.32;52.61
44131;BME280;29792;48.726;9.248;2022-10-17T12:28:26;97659.50;;;25.35;52.09
44131;BME280;29792;48.726;9.248;2022-10-17T12:30:58;97664.94;;;25.40;54.01
44131;BME280;29792;48.726;9.248;2022-10-17T12:38:42;97664.34;;;25.51;53.61
44131;BME280;29792;48.726;9.248;2022-10-17T12:41:08;97662.34;;;25.53;52.74
44131;BME280;29792;48.726;9.248;2022-10-17T12:43:51;97668.19;;;25.55;51.71
44131;BME280;29792;48.726;9.248;2022-10-17T12:49:21;97659.75;;;25.60;53.48
44131;BME280;29792;48.726;9.248;2022-10-17T12:57:46;97666.22;;;25.77;51.19
44131;BME280;29792;48.726;9.248;2022-10-17T13:00:42;97655.69;;;25.70;51.57
44131;BME280;29792;48.726;9.248;2022-10-17T13:05:37;97661.97;;;25.69;52.27
44131;BME280;29792;48.726;9.248;2022-10-17T13:08:06;97668.44;;;25.67;51.11
44131;BME280;29792;48.726;9.248;2022-10-17T13:10:37;97674.69;;;25.66;51.72
44131;BME280;29792;48.726;9.248;2022-10-17T13:13:09;97671.44;;;25.64;51.90
44131;BME280;29792;48.726;9.248;2022-10-17T13:15:36;97674.25;;;25.62;51.82
44131;BME280;29792;48.726;9.248;2022-10-17T13:18:02;97671.06;;;25.60;52.48
44131;BME280;29792;48.726;9.248;2022-10-17T13:20:29;97673.47;;;25.62;53.63
44131;BME280;29792;48.726;9.248;2022-10-17T13:22:56;97669.81;;;25.63;53.19
44131;BME280;29792;48.726;9.248;2022-10-17T13:25:23;97673.88;;;25.65;54.42
44131;BME280;29792;48.726;9.248;2022-10-17T13:27:49;97681.94;;;25.70;54.62
44131;BME280;29792;48.726;9.248;2022-10-17T13:30:29;97678.91;;;25.73;52.34
44131;BME280;29792;48.726;9.248;2022-10-17T13:32:55;97673.84;;;25.78;51.71
44131;BME280;29792;48.726;9.248;2022-10-17T13:35:24;97682.53;;;25.79;52.67
44131;BME280;29792;48.726;9.248;2022-10-17T13:40:21;97682.34;;;25.74;50.47
44131;BME280;29792;48.726;9.248;2022-10-17T13:42:47;97689.63;;;25.72;50.42
44131;BME280;29792;48.726;9.248;2022-10-17T13:45:21;97695.06;;;25.70;51.27
44131;BME280;29792;48.726;9.248;2022-10-17T13:47:48;97694.06;;;25.71;52.37
44131;BME280;29792;48.726;9.248;2022-10-17T13:50:41;97697.69;;;25.70;51.58
44131;BME280;29792;48.726;9.248;2022-10-17T13:53:17;97694.47;;;25.75;53.05
44131;BME280;29792;48.726;9.248;2022-10-17T13:55:55;97694.88;;;25.72;54.26
44131;BME280;29792;48.726;9.248;2022-10-17T13:58:22;97697.09;;;25.68;55.14
44131;BME280;29792;48.726;9.248;2022-10-17T14:00:48;97697.31;;;25.67;55.94
44131;BME280;29792;48.726;9.248;2022-10-17T14:03:16;97698.50;;;25.64;55.32
44131;BME280;29792;48.726;9.248;2022-10-17T14:06:22;97702.75;;;25.59;55.60
44131;BME280;29792;48.726;9.248;2022-10-17T14:08:49;97694.66;;;25.54;55.68
44131;BME280;29792;48.726;9.248;2022-10-17T14:11:22;97695.22;;;25.49;55.47
44131;BME280;29792;48.726;9.248;2022-10-17T14:13:49;97706.13;;;25.46;54.89
44131;BME280;29792;48.726;9.248;2022-10-17T14:16:16;97696.44;;;25.40;54.95
44131;BME280;29792;48.726;9.248;2022-10-17T14:18:41;97700.47;;;25.36;55.97
44131;BME280;29792;48.726;9.248;2022-10-17T14:21:18;97708.09;;;25.31;55.39
44131;BME280;29792;48.726;9.248;2022-10-17T14:23:44;97711.34;;;25.26;56.03